sensor_id;sensor_type;location;lat;lon;timestamp;temperature;humidity
11136;DHT22;5622;50.840;4.948;2023-06-26T00:02:18;22.70;99.90
11136;DHT22;5622;50.840;4.948;2023-06-26T00:04:45;22.70;99.90
11136;DHT22;5622;50.840;4.948;2023-06-26T00:07:13;22.70;99.90
11136;DHT22;5622;50.840;4.948;2023-06-26T00:09:41;22.70;99.90
11136;DHT22;5622;50.840;4.948;2023-06-26T00:12:08;22.70;99.90
11136;DHT22;5622;50.840;4.948;2023-06-26T00:14:35;22.70;99.90
11136;DHT22;5622;50.840;4.948;2023-06-26T00:17:03;22.60;99.90
11136;DHT22;5622;50.840;4.948;2023-06-26T00:19:30;22.70;99.90
11136;DHT22;5622;50.840;4.948;2023-06-26T00:21:58;22.60;99.90
11136;DHT22;5622;50.840;4.948;2023-06-26T00:24:27;22.60;99.90
11136;DHT22;5622;50.840;4.948;2023-06-26T00:26:54;22.60;99.90
11136;DHT22;5622;50.840;4.948;2023-06-26T00:29:21;22.50;99.90
11136;DHT22;5622;50.840;4.948;2023-06-26T00:31:48;22.60;99.90
11136;DHT22;5622;50.840;4.948;2023-06-26T00:34:15;22.50;99.90
11136;DHT22;5622;50.840;4.948;2023-06-26T00:36:42;22.50;99.90
11136;DHT22;5622;50.840;4.948;2023-06-26T00:39:09;22.50;99.90
11136;DHT22;5622;50.840;4.948;2023-06-26T00:41:38;22.50;99.90
11136;DHT22;5622;50.840;4.948;2023-06-26T00:44:05;22.50;99.90
11136;DHT22;5622;50.840;4.948;2023-06-26T00:46:33;22.40;99.90
11136;DHT22;5622;50.840;4.948;2023-06-26T00:49:02;22.40;99.90
11136;DHT22;5622;50.840;4.948;2023-06-26T00:51:30;22.40;99.90
11136;DHT22;5622;50.840;4.948;2023-06-26T00:53:57;22.40;99.90
11136;DHT22;5622;50.840;4.948;2023-06-26T00:56:25;22.30;99.90
11136;DHT22;5622;50.840;4.948;2023-06-26T00:58:53;22.20;99.90
11136;DHT22;5622;50.840;4.948;2023-06-26T01:01:20;22.20;99.90
11136;DHT22;5622;50.840;4.948;2023-06-26T01:03:52;22.20;99.90
11136;DHT22;5622;50.840;4.948;2023-06-26T01:06:21;22.20;99.90
11136;DHT22;5622;50.840;4.948;2023-06-26T01:08:49;22.10;99.90
11136;DHT22;5622;50.840;4.948;2023-06-26T01:11:16;22.10;99.90
11136;DHT22;5622;50.840;4.948;2023-06-26T01:13:45;22.00;99.90
11136;DHT22;5622;50.840;4.948;2023-06-26T01:16:15;21.90;99.90
11136;DHT22;5622;50.840;4.948;2023-06-26T01:18:45;21.90;99.90
11136;DHT22;5622;50.840;4.948;2023-06-26T01:21:15;21.90;99.90
11136;DHT22;5622;50.840;4.948;2023-06-26T01:23:52;21.80;99.90
11136;DHT22;5622;50.840;4.948;2023-06-26T01:26:27;21.80;99.90
11136;DHT22;5622;50.840;4.948;2023-06-26T01:28:57;21.70;99.90
11136;DHT22;5622;50.840;4.948;2023-06-26T01:31:26;21.60;99.90
11136;DHT22;5622;50.840;4.948;2023-06-26T01:33:53;21.60;99.90
11136;DHT22;5622;50.840;4.948;2023-06-26T01:36:20;21.50;99.90
11136;DHT22;5622;50.840;4.948;2023-06-26T01:38:47;21.50;99.90
11136;DHT22;5622;50.840;4.948;2023-06-26T01:41:14;21.50;99.90
11136;DHT22;5622;50.840;4.948;2023-06-26T01:44:02;21.40;99.90
11136;DHT22;5622;50.840;4.948;2023-06-26T01:46:38;21.40;99.90
11136;DHT22;5622;50.840;4.948;2023-06-26T01:49:12;21.30;99.90
11136;DHT22;5622;50.840;4.948;2023-06-26T01:51:45;21.20;99.90
11136;DHT22;5622;50.840;4.948;2023-06-26T01:54:17;21.20;99.90
11136;DHT22;5622;50.840;4.948;2023-06-26T01:56:46;21.10;99.90
11136;DHT22;5622;50.840;4.948;2023-06-26T01:59:18;21.00;99.90
11136;DHT22;5622;50.840;4.948;2023-06-26T02:01:46;21.00;99.90
11136;DHT22;5622;50.840;4.948;2023-06-26T02:04:13;20.90;99.90
11136;DHT22;5622;50.840;4.948;2023-06-26T02:06:40;20.90;99.90
11136;DHT22;5622;50.840;4.948;2023-06-26T02:09:07;20.90;99.90
11136;DHT22;5622;50.840;4.948;2023-06-26T02:11:34;20.90;99.90
11136;DHT22;5622;50.840;4.948;2023-06-26T02:14:01;20.80;99.90
11136;DHT22;5622;50.840;4.948;2023-06-26T02:16:31;20.80;99.90
11136;DHT22;5622;50.840;4.948;2023-06-26T02:18:58;20.80;99.90
11136;DHT22;5622;50.840;4.948;2023-06-26T02:21:25;20.80;99.90
11136;DHT22;5622;50.840;4.948;2023-06-26T02:23:52;20.70;99.90
11136;DHT22;5622;50.840;4.948;2023-06-26T02:26:19;20.70;99.90
11136;DHT22;5622;50.840;4.948;2023-06-26T02:28:47;20.70;99.90
11136;DHT22;5622;50.840;4.948;2023-06-26T02:31:14;20.60;99.90
11136;DHT22;5622;50.840;4.948;2023-06-26T02:33:43;20.60;99.90
11136;DHT22;5622;50.840;4.948;2023-06-26T02:36:11;20.50;99.90
11136;DHT22;5622;50.840;4.948;2023-06-26T02:38:39;20.50;99.90
11136;DHT22;5622;50.840;4.948;2023-06-26T02:41:06;20.60;99.90
11136;DHT22;5622;50.840;4.948;2023-06-26T02:43:33;20.50;99.90
11136;DHT22;5622;50.840;4.948;2023-06-26T02:46:00;20.50;99.90
11136;DHT22;5622;50.840;4.948;2023-06-26T02:48:27;20.40;99.90
11136;DHT22;5622;50.840;4.948;2023-06-26T02:50:55;20.40;99.90
11136;DHT22;5622;50.840;4.948;2023-06-26T02:53:23;20.40;99.90
11136;DHT22;5622;50.840;4.948;2023-06-26T02:55:50;20.40;99.90
11136;DHT22;5622;50.840;4.948;2023-06-26T02:58:17;20.40;99.90
11136;DHT22;5622;50.840;4.948;2023-06-26T03:00:44;20.30;99.90
11136;DHT22;5622;50.840;4.948;2023-06-26T03:03:12;20.30;99.90
11136;DHT22;5622;50.840;4.948;2023-06-26T03:05:39;20.30;99.90
11136;DHT22;5622;50.840;4.948;2023-06-26T03:08:08;20.20;99.90
11136;DHT22;5622;50.840;4.948;2023-06-26T03:10:35;20.20;99.90
11136;DHT22;5622;50.840;4.948;2023-06-26T03:13:02;20.20;99.90
11136;DHT22;5622;50.840;4.948;2023-06-26T03:15:29;20.10;99.90
11136;DHT22;5622;50.840;4.948;2023-06-26T03:17:56;20.10;99.90
11136;DHT22;5622;50.840;4.948;2023-06-26T03:20:23;20.10;99.90
11136;DHT22;5622;50.840;4.948;2023-06-26T03:22:50;20.10;99.90
11136;DHT22;5622;50.840;4.948;2023-06-26T03:25:19;20.10;99.90
11136;DHT22;5622;50.840;4.948;2023-06-26T03:27:46;20.10;99.90
11136;DHT22;5622;50.840;4.948;2023-06-26T03:30:14;20.00;99.90
11136;DHT22;5622;50.840;4.948;2023-06-26T03:32:41;20.00;99.90
11136;DHT22;5622;50.840;4.948;2023-06-26T03:35:08;20.00;99.90
11136;DHT22;5622;50.840;4.948;2023-06-26T03:37:35;20.00;99.90
11136;DHT22;5622;50.840;4.948;2023-06-26T03:40:03;20.00;99.90
11136;DHT22;5622;50.840;4.948;2023-06-26T03:42:32;19.90;99.90
11136;DHT22;5622;50.840;4.948;2023-06-26T03:44:59;19.90;99.90
11136;DHT22;5622;50.840;4.948;2023-06-26T03:47:26;19.80;99.90
11136;DHT22;5622;50.840;4.948;2023-06-26T03:49:53;19.90;99.90
11136;DHT22;5622;50.840;4.948;2023-06-26T03:52:21;19.80;99.90
11136;DHT22;5622;50.840;4.948;2023-06-26T03:54:48;19.80;99.90
11136;DHT22;5622;50.840;4.948;2023-06-26T03:57:15;19.80;99.90
11136;DHT22;5622;50.840;4.948;2023-06-26T03:59:43;19.70;99.90
11136;DHT22;5622;50.840;4.948;2023-06-26T04:02:10;19.70;99.90
11136;DHT22;5622;50.840;4.948;2023-06-26T04:04:38;19.60;99.90
11136;DHT22;5622;50.840;4.948;2023-06-26T04:07:05;19.60;99.90
11136;DHT22;5622;50.840;4.948;2023-06-26T04:09:32;19.60;99.90
11136;DHT22;5622;50.840;4.948;2023-06-26T04:11:59;19.60;99.90
11136;DHT22;5622;50.840;4.948;2023-06-26T04:14:26;19.60;99.90
11136;DHT22;5622;50.840;4.948;2023-06-26T04:16:55;19.60;99.90
11136;DHT22;5622;50.840;4.948;2023-06-26T04:19:23;19.60;99.90
11136;DHT22;5622;50.840;4.948;2023-06-26T04:21:50;19.60;99.90
11136;DHT22;5622;50.840;4.948;2023-06-26T04:24:17;19.60;99.90
11136;DHT22;5622;50.840;4.948;2023-06-26T04:26:44;19.50;99.90
11136;DHT22;5622;50.840;4.948;2023-06-26T04:29:12;19.50;99.90
11136;DHT22;5622;50.840;4.948;2023-06-26T04:31:39;19.40;99.90
11136;DHT22;5622;50.840;4.948;2023-06-26T04:34:08;19.50;99.90
11136;DHT22;5622;50.840;4.948;2023-06-26T04:36:35;19.50;99.90
11136;DHT22;5622;50.840;4.948;2023-06-26T04:39:04;19.40;99.90
11136;DHT22;5622;50.840;4.948;2023-06-26T04:41:31;19.40;99.90
11136;DHT22;5622;50.840;4.948;2023-06-26T04:43:58;19.40;99.90
11136;DHT22;5622;50.840;4.948;2023-06-26T04:46:26;19.30;99.90
11136;DHT22;5622;50.840;4.948;2023-06-26T04:48:53;19.30;99.90
11136;DHT22;5622;50.840;4.948;2023-06-26T04:51:25;19.30;99.90
11136;DHT22;5622;50.840;4.948;2023-06-26T04:53:52;19.30;99.90
11136;DHT22;5622;50.840;4.948;2023-06-26T04:56:19;19.20;99.90
11136;DHT22;5622;50.840;4.948;2023-06-26T04:58:46;19.20;99.90
11136;DHT22;5622;50.840;4.948;2023-06-26T05:01:13;19.20;99.90
11136;DHT22;5622;50.840;4.948;2023-06-26T05:03:41;19.20;99.90
11136;DHT22;5622;50.840;4.948;2023-06-26T05:06:08;19.30;99.90
11136;DHT22;5622;50.840;4.948;2023-06-26T05:08:37;19.30;99.90
11136;DHT22;5622;50.840;4.948;2023-06-26T05:11:04;19.30;99.90
11136;DHT22;5622;50.840;4.948;2023-06-26T05:13:31;19.30;99.90
11136;DHT22;5622;50.840;4.948;2023-06-26T05:15:58;19.40;99.90
11136;DHT22;5622;50.840;4.948;2023-06-26T05:18:25;19.30;99.90
11136;DHT22;5622;50.840;4.948;2023-06-26T05:20:53;19.40;99.90
11136;DHT22;5622;50.840;4.948;2023-06-26T05:23:20;19.30;99.90
11136;DHT22;5622;50.840;4.948;2023-06-26T05:25:49;19.30;99.90
11136;DHT22;5622;50.840;4.948;2023-06-26T05:28:17;19.30;99.90
11136;DHT22;5622;50.840;4.948;2023-06-26T05:30:44;19.40;99.90
11136;DHT22;5622;50.840;4.948;2023-06-26T05:33:14;19.30;99.90
11136;DHT22;5622;50.840;4.948;2023-06-26T05:35:45;19.30;99.90
11136;DHT22;5622;50.840;4.948;2023-06-26T05:38:13;19.30;99.90
11136;DHT22;5622;50.840;4.948;2023-06-26T05:40:40;19.30;99.90
11136;DHT22;5622;50.840;4.948;2023-06-26T05:43:10;19.30;99.90
11136;DHT22;5622;50.840;4.948;2023-06-26T05:45:37;19.30;99.90
11136;DHT22;5622;50.840;4.948;2023-06-26T05:48:04;19.20;99.90
11136;DHT22;5622;50.840;4.948;2023-06-26T05:50:32;19.20;99.90
11136;DHT22;5622;50.840;4.948;2023-06-26T05:53:00;19.30;99.90
11136;DHT22;5622;50.840;4.948;2023-06-26T05:55:29;19.20;99.90
11136;DHT22;5622;50.840;4.948;2023-06-26T05:57:58;19.20;99.90
11136;DHT22;5622;50.840;4.948;2023-06-26T06:00:28;19.20;99.90
11136;DHT22;5622;50.840;4.948;2023-06-26T06:02:56;19.20;99.90
11136;DHT22;5622;50.840;4.948;2023-06-26T06:05:23;19.20;99.90
11136;DHT22;5622;50.840;4.948;2023-06-26T06:07:50;19.20;99.90
11136;DHT22;5622;50.840;4.948;2023-06-26T06:10:18;19.20;99.90
11136;DHT22;5622;50.840;4.948;2023-06-26T06:22:45;19.10;99.90
11136;DHT22;5622;50.840;4.948;2023-06-26T06:25:17;19.30;99.90
11136;DHT22;5622;50.840;4.948;2023-06-26T06:27:56;19.20;99.90
11136;DHT22;5622;50.840;4.948;2023-06-26T06:34:09;19.40;99.90
11136;DHT22;5622;50.840;4.948;2023-06-26T06:37:12;19.30;99.90
11136;DHT22;5622;50.840;4.948;2023-06-26T06:46:16;19.30;99.90
11136;DHT22;5622;50.840;4.948;2023-06-26T06:48:50;19.40;99.90
11136;DHT22;5622;50.840;4.948;2023-06-26T06:51:26;19.50;99.90
11136;DHT22;5622;50.840;4.948;2023-06-26T06:53:58;19.50;99.90
11136;DHT22;5622;50.840;4.948;2023-06-26T06:56:26;19.60;99.90
11136;DHT22;5622;50.840;4.948;2023-06-26T06:58:54;19.60;99.90
11136;DHT22;5622;50.840;4.948;2023-06-26T07:01:23;19.70;99.90
11136;DHT22;5622;50.840;4.948;2023-06-26T07:03:51;20.80;99.90
11136;DHT22;5622;50.840;4.948;2023-06-26T07:06:19;19.90;99.90
11136;DHT22;5622;50.840;4.948;2023-06-26T07:08:46;20.00;99.90
11136;DHT22;5622;50.840;4.948;2023-06-26T07:11:13;20.60;99.90
11136;DHT22;5622;50.840;4.948;2023-06-26T07:13:41;20.40;99.90
11136;DHT22;5622;50.840;4.948;2023-06-26T07:16:08;20.60;99.90
11136;DHT22;5622;50.840;4.948;2023-06-26T07:18:39;20.70;99.90
11136;DHT22;5622;50.840;4.948;2023-06-26T07:21:06;20.90;99.90
11136;DHT22;5622;50.840;4.948;2023-06-26T07:23:36;20.90;99.90
11136;DHT22;5622;50.840;4.948;2023-06-26T07:26:06;21.10;99.90
11136;DHT22;5622;50.840;4.948;2023-06-26T07:28:35;21.30;99.90
11136;DHT22;5622;50.840;4.948;2023-06-26T07:31:03;21.40;99.90
11136;DHT22;5622;50.840;4.948;2023-06-26T07:33:31;21.60;99.90
11136;DHT22;5622;50.840;4.948;2023-06-26T07:36:02;21.70;99.90
11136;DHT22;5622;50.840;4.948;2023-06-26T07:38:32;21.90;99.90
11136;DHT22;5622;50.840;4.948;2023-06-26T07:40:59;21.00;99.90
11136;DHT22;5622;50.840;4.948;2023-06-26T07:43:27;22.00;99.90
11136;DHT22;5622;50.840;4.948;2023-06-26T07:45:55;22.10;99.90
11136;DHT22;5622;50.840;4.948;2023-06-26T07:48:26;22.40;99.90
11136;DHT22;5622;50.840;4.948;2023-06-26T07:50:59;22.40;99.90
11136;DHT22;5622;50.840;4.948;2023-06-26T07:53:29;22.40;99.90
11136;DHT22;5622;50.840;4.948;2023-06-26T07:55:58;22.40;99.90
11136;DHT22;5622;50.840;4.948;2023-06-26T07:58:34;22.40;99.90
11136;DHT22;5622;50.840;4.948;2023-06-26T08:01:04;22.30;99.90
11136;DHT22;5622;50.840;4.948;2023-06-26T08:03:33;22.40;99.90
11136;DHT22;5622;50.840;4.948;2023-06-26T08:06:07;22.50;99.90
11136;DHT22;5622;50.840;4.948;2023-06-26T08:08:39;22.60;99.90
11136;DHT22;5622;50.840;4.948;2023-06-26T08:11:07;22.50;99.90
11136;DHT22;5622;50.840;4.948;2023-06-26T08:13:36;22.70;99.90
11136;DHT22;5622;50.840;4.948;2023-06-26T08:16:18;22.80;99.90
11136;DHT22;5622;50.840;4.948;2023-06-26T08:18:52;22.90;99.90
11136;DHT22;5622;50.840;4.948;2023-06-26T08:21:23;23.50;99.40
11136;DHT22;5622;50.840;4.948;2023-06-26T08:23:55;23.20;99.10
11136;DHT22;5622;50.840;4.948;2023-06-26T08:26:37;23.30;98.80
11136;DHT22;5622;50.840;4.948;2023-06-26T08:29:06;23.40;98.90
11136;DHT22;5622;50.840;4.948;2023-06-26T08:31:40;23.30;98.20
11136;DHT22;5622;50.840;4.948;2023-06-26T08:34:15;23.40;98.50
11136;DHT22;5622;50.840;4.948;2023-06-26T08:37:00;23.40;98.80
11136;DHT22;5622;50.840;4.948;2023-06-26T08:39:38;23.50;96.70
11136;DHT22;5622;50.840;4.948;2023-06-26T08:42:15;23.60;96.40
11136;DHT22;5622;50.840;4.948;2023-06-26T08:45:00;23.60;96.60
11136;DHT22;5622;50.840;4.948;2023-06-26T08:47:32;23.70;95.70
11136;DHT22;5622;50.840;4.948;2023-06-26T08:50:14;23.70;95.90
11136;DHT22;5622;50.840;4.948;2023-06-26T08:53:27;23.50;95.30
11136;DHT22;5622;50.840;4.948;2023-06-26T08:56:03;23.50;96.10
11136;DHT22;5622;50.840;4.948;2023-06-26T08:58:39;23.50;95.50
11136;DHT22;5622;50.840;4.948;2023-06-26T09:01:09;23.60;95.30
11136;DHT22;5622;50.840;4.948;2023-06-26T09:03:46;23.70;95.80
11136;DHT22;5622;50.840;4.948;2023-06-26T09:06:25;23.90;95.10
11136;DHT22;5622;50.840;4.948;2023-06-26T09:09:14;23.90;93.90
11136;DHT22;5622;50.840;4.948;2023-06-26T09:18:22;24.10;93.20
11136;DHT22;5622;50.840;4.948;2023-06-26T09:20:59;24.20;92.70
11136;DHT22;5622;50.840;4.948;2023-06-26T09:23:56;24.40;92.40
11136;DHT22;5622;50.840;4.948;2023-06-26T09:34:04;24.80;91.30
11136;DHT22;5622;50.840;4.948;2023-06-26T09:40:05;24.40;91.70
11136;DHT22;5622;50.840;4.948;2023-06-26T09:43:04;24.40;91.40
11136;DHT22;5622;50.840;4.948;2023-06-26T09:46:08;24.50;91.10
11136;DHT22;5622;50.840;4.948;2023-06-26T09:49:04;24.50;88.70
11136;DHT22;5622;50.840;4.948;2023-06-26T09:55:43;24.50;87.00
11136;DHT22;5622;50.840;4.948;2023-06-26T09:58:58;24.60;84.40
11136;DHT22;5622;50.840;4.948;2023-06-26T10:16:04;25.40;85.10
11136;DHT22;5622;50.840;4.948;2023-06-26T10:19:04;25.00;80.10
11136;DHT22;5622;50.840;4.948;2023-06-26T10:36:00;24.40;83.70
11136;DHT22;5622;50.840;4.948;2023-06-26T10:39:08;24.20;81.80
11136;DHT22;5622;50.840;4.948;2023-06-26T10:55:37;24.00;79.70
11136;DHT22;5622;50.840;4.948;2023-06-26T11:05:03;23.90;81.80
11136;DHT22;5622;50.840;4.948;2023-06-26T11:08:18;24.00;82.80
11136;DHT22;5622;50.840;4.948;2023-06-26T11:11:11;24.00;80.70
11136;DHT22;5622;50.840;4.948;2023-06-26T11:17:24;23.90;81.30
11136;DHT22;5622;50.840;4.948;2023-06-26T11:20:13;23.90;83.70
11136;DHT22;5622;50.840;4.948;2023-06-26T11:23:14;24.00;81.50
11136;DHT22;5622;50.840;4.948;2023-06-26T11:39:57;23.70;78.30
11136;DHT22;5622;50.840;4.948;2023-06-26T11:42:44;23.60;78.70
11136;DHT22;5622;50.840;4.948;2023-06-26T11:45:31;23.70;78.30
11136;DHT22;5622;50.840;4.948;2023-06-26T11:52:05;23.50;75.40
11136;DHT22;5622;50.840;4.948;2023-06-26T11:54:55;23.80;78.40
11136;DHT22;5622;50.840;4.948;2023-06-26T11:57:42;23.80;77.80
11136;DHT22;5622;50.840;4.948;2023-06-26T12:10:54;23.60;78.20
11136;DHT22;5622;50.840;4.948;2023-06-26T12:13:44;23.40;75.20
11136;DHT22;5622;50.840;4.948;2023-06-26T12:20:22;23.20;76.70
11136;DHT22;5622;50.840;4.948;2023-06-26T12:42:18;23.00;77.20
11136;DHT22;5622;50.840;4.948;2023-06-26T12:45:14;23.00;77.00
11136;DHT22;5622;50.840;4.948;2023-06-26T12:48:08;23.00;77.60
11136;DHT22;5622;50.840;4.948;2023-06-26T12:50:59;23.00;77.80
11136;DHT22;5622;50.840;4.948;2023-06-26T12:53:34;23.10;81.80
11136;DHT22;5622;50.840;4.948;2023-06-26T12:56:03;23.00;79.60
11136;DHT22;5622;50.840;4.948;2023-06-26T12:58:30;23.00;79.60
11136;DHT22;5622;50.840;4.948;2023-06-26T13:00:57;22.90;79.50
11136;DHT22;5622;50.840;4.948;2023-06-26T13:03:24;22.80;79.90
11136;DHT22;5622;50.840;4.948;2023-06-26T13:05:51;22.80;78.20
11136;DHT22;5622;50.840;4.948;2023-06-26T13:08:19;22.70;77.80
11136;DHT22;5622;50.840;4.948;2023-06-26T13:10:46;22.70;76.20
11136;DHT22;5622;50.840;4.948;2023-06-26T13:13:14;22.80;75.80
11136;DHT22;5622;50.840;4.948;2023-06-26T13:15:41;22.70;76.20
11136;DHT22;5622;50.840;4.948;2023-06-26T13:18:08;22.80;78.50
11136;DHT22;5622;50.840;4.948;2023-06-26T13:20:35;22.90;78.80
11136;DHT22;5622;50.840;4.948;2023-06-26T13:23:02;23.00;78.50
11136;DHT22;5622;50.840;4.948;2023-06-26T13:25:30;23.10;76.80
11136;DHT22;5622;50.840;4.948;2023-06-26T13:27:57;23.10;77.70
11136;DHT22;5622;50.840;4.948;2023-06-26T13:30:25;23.10;77.10
11136;DHT22;5622;50.840;4.948;2023-06-26T13:32:53;23.20;76.70
11136;DHT22;5622;50.840;4.948;2023-06-26T13:35:20;23.30;80.60
11136;DHT22;5622;50.840;4.948;2023-06-26T13:37:47;23.30;76.00
11136;DHT22;5622;50.840;4.948;2023-06-26T13:40:14;23.40;75.40
11136;DHT22;5622;50.840;4.948;2023-06-26T13:42:41;23.30;71.80
11136;DHT22;5622;50.840;4.948;2023-06-26T13:45:10;23.20;73.30
11136;DHT22;5622;50.840;4.948;2023-06-26T13:47:39;23.20;73.60
11136;DHT22;5622;50.840;4.948;2023-06-26T13:50:09;23.20;73.70
11136;DHT22;5622;50.840;4.948;2023-06-26T13:52:37;23.20;72.80
11136;DHT22;5622;50.840;4.948;2023-06-26T13:55:04;23.20;73.20
11136;DHT22;5622;50.840;4.948;2023-06-26T13:57:32;23.20;72.90
11136;DHT22;5622;50.840;4.948;2023-06-26T13:59:59;23.30;73.70
11136;DHT22;5622;50.840;4.948;2023-06-26T14:02:28;23.40;74.80
11136;DHT22;5622;50.840;4.948;2023-06-26T14:04:57;23.40;73.80
11136;DHT22;5622;50.840;4.948;2023-06-26T14:07:24;23.40;75.00
11136;DHT22;5622;50.840;4.948;2023-06-26T14:09:51;23.40;75.80
11136;DHT22;5622;50.840;4.948;2023-06-26T14:12:18;23.40;73.40
11136;DHT22;5622;50.840;4.948;2023-06-26T14:14:45;23.30;73.30
11136;DHT22;5622;50.840;4.948;2023-06-26T14:17:12;23.40;73.30
11136;DHT22;5622;50.840;4.948;2023-06-26T14:19:41;23.30;73.70
11136;DHT22;5622;50.840;4.948;2023-06-26T14:22:10;23.30;73.30
11136;DHT22;5622;50.840;4.948;2023-06-26T14:24:37;23.30;73.70
11136;DHT22;5622;50.840;4.948;2023-06-26T14:27:33;23.30;73.60
11136;DHT22;5622;50.840;4.948;2023-06-26T14:34:11;23.20;73.60
11136;DHT22;5622;50.840;4.948;2023-06-26T14:36:54;23.20;74.90
11136;DHT22;5622;50.840;4.948;2023-06-26T14:39:39;23.20;76.30
11136;DHT22;5622;50.840;4.948;2023-06-26T14:42:25;23.10;76.40
11136;DHT22;5622;50.840;4.948;2023-06-26T14:45:17;23.40;73.80
11136;DHT22;5622;50.840;4.948;2023-06-26T14:47:53;23.30;74.80
11136;DHT22;5622;50.840;4.948;2023-06-26T14:50:26;23.40;76.60
11136;DHT22;5622;50.840;4.948;2023-06-26T14:53:23;23.30;74.20
11136;DHT22;5622;50.840;4.948;2023-06-26T14:56:10;23.20;75.00
11136;DHT22;5622;50.840;4.948;2023-06-26T14:58:49;23.30;74.60
11136;DHT22;5622;50.840;4.948;2023-06-26T15:01:34;23.30;76.30
11136;DHT22;5622;50.840;4.948;2023-06-26T15:04:19;23.30;76.40
11136;DHT22;5622;50.840;4.948;2023-06-26T15:06:57;23.30;75.20
11136;DHT22;5622;50.840;4.948;2023-06-26T15:09:51;23.20;75.00
11136;DHT22;5622;50.840;4.948;2023-06-26T15:12:25;23.20;73.60
11136;DHT22;5622;50.840;4.948;2023-06-26T15:15:12;23.10;75.70
11136;DHT22;5622;50.840;4.948;2023-06-26T15:21:03;23.00;74.60
11136;DHT22;5622;50.840;4.948;2023-06-26T15:23:32;22.90;73.30
11136;DHT22;5622;50.840;4.948;2023-06-26T15:26:09;22.90;73.40
11136;DHT22;5622;50.840;4.948;2023-06-26T15:28:55;22.80;75.10
11136;DHT22;5622;50.840;4.948;2023-06-26T15:31:33;22.90;75.80
11136;DHT22;5622;50.840;4.948;2023-06-26T15:34:03;22.90;75.10
11136;DHT22;5622;50.840;4.948;2023-06-26T15:36:45;23.10;75.70
11136;DHT22;5622;50.840;4.948;2023-06-26T15:39:21;23.10;73.50
11136;DHT22;5622;50.840;4.948;2023-06-26T15:42:03;23.10;75.00
11136;DHT22;5622;50.840;4.948;2023-06-26T15:44:56;23.10;75.20
11136;DHT22;5622;50.840;4.948;2023-06-26T15:47:52;23.10;75.10
11136;DHT22;5622;50.840;4.948;2023-06-26T15:50:27;23.10;73.80
11136;DHT22;5622;50.840;4.948;2023-06-26T15:53:06;23.00;74.80
11136;DHT22;5622;50.840;4.948;2023-06-26T15:55:43;22.90;72.40
11136;DHT22;5622;50.840;4.948;2023-06-26T16:05:33;22.80;74.50
11136;DHT22;5622;50.840;4.948;2023-06-26T16:08:06;22.80;75.60
11136;DHT22;5622;50.840;4.948;2023-06-26T16:17:27;22.70;74.90
11136;DHT22;5622;50.840;4.948;2023-06-26T16:39:38;22.40;79.30
